Time;durP1;ratioP1;P1;durP2;ratioP2;P2;SDS_P1;SDS_P2;PMS_P1;PMS_P2;Temp;Humidity;BMP_temperature;BMP_pressure;BME280_temperature;BME280_humidity;BME280_pressure;Samples;Min_cycle;Max_cycle;Signal;HPM_P1;HPM_P2
2022/10/26 00:02:20;;;;;;;2.25;1.38;;;11.80;99.90;;;;;;5005304;28;20368;-84
2022/10/26 00:04:45;;;;;;;1.75;1.40;;;11.80;99.90;;;;;;4987599;28;20552;-84
2022/10/26 00:07:11;;;;;;;2.25;1.52;;;11.80;99.90;;;;;;5004346;28;20046;-83
2022/10/26 00:09:36;;;;;;;1.25;1.15;;;11.80;99.90;;;;;;5005449;28;20010;-84
2022/10/26 00:12:03;;;;;;;3.75;1.50;;;11.80;99.90;;;;;;4988185;28;20022;-85
2022/10/26 00:14:28;;;;;;;2.33;1.48;;;11.80;99.90;;;;;;5005219;28;20050;-82
2022/10/26 00:16:54;;;;;;;2.22;1.30;;;11.80;99.90;;;;;;5005325;28;20478;-84
2022/10/26 00:19:20;;;;;;;1.77;1.15;;;11.80;99.90;;;;;;5008029;28;20060;-85
2022/10/26 00:21:45;;;;;;;2.13;1.42;;;11.90;99.90;;;;;;5005659;28;20026;-85
2022/10/26 00:24:11;;;;;;;2.30;1.40;;;11.90;99.90;;;;;;5005975;28;20049;-84
2022/10/26 00:26:38;;;;;;;1.45;1.10;;;11.90;99.90;;;;;;5006999;28;20075;-85
2022/10/26 00:29:04;;;;;;;1.70;1.10;;;11.90;99.90;;;;;;4986992;28;20023;-83
2022/10/26 00:31:30;;;;;;;1.40;0.82;;;12.00;99.90;;;;;;5004748;28;20023;-83
2022/10/26 00:33:57;;;;;;;1.30;1.10;;;12.00;99.90;;;;;;5005409;28;20487;-83
2022/10/26 00:36:23;;;;;;;2.28;1.50;;;12.00;99.90;;;;;;5004306;28;20066;-84
2022/10/26 00:38:51;;;;;;;1.40;1.20;;;12.00;99.90;;;;;;5003712;28;20126;-84
2022/10/26 00:41:18;;;;;;;1.15;1.00;;;12.00;99.90;;;;;;5004447;28;20100;-82
2022/10/26 00:43:44;;;;;;;4.60;1.40;;;12.00;99.90;;;;;;5007749;28;20026;-83
2022/10/26 00:46:21;;;;;;;2.03;1.65;;;12.00;99.90;;;;;;5015630;28;20041;-84
2022/10/26 00:48:55;;;;;;;2.70;1.15;;;12.00;99.90;;;;;;5000075;28;20034;-83
2022/10/26 00:51:32;;;;;;;2.45;1.10;;;12.00;99.90;;;;;;5015969;28;20109;-82
2022/10/26 00:54:02;;;;;;;3.63;1.30;;;11.90;99.90;;;;;;5016527;28;20094;-84
2022/10/26 00:56:28;;;;;;;2.05;1.00;;;11.90;99.90;;;;;;5017204;28;20070;-83
2022/10/26 00:58:58;;;;;;;1.38;0.90;;;12.00;99.90;;;;;;4999915;28;20036;-84
2022/10/26 01:01:24;;;;;;;1.15;0.80;;;12.00;99.90;;;;;;5016404;28;20079;-84
2022/10/26 01:03:50;;;;;;;0.80;0.68;;;12.00;99.90;;;;;;5001128;28;20068;-83
2022/10/26 01:06:15;;;;;;;3.42;1.15;;;12.00;99.90;;;;;;5017907;28;20022;-83
2022/10/26 01:08:43;;;;;;;1.35;1.20;;;12.10;99.90;;;;;;5019098;28;20022;-84
2022/10/26 01:11:09;;;;;;;0.82;0.70;;;12.10;99.90;;;;;;5017065;28;20018;-83
2022/10/26 01:13:36;;;;;;;1.52;0.90;;;12.10;99.90;;;;;;5016544;28;20042;-82
2022/10/26 01:16:31;;;;;;;1.98;1.08;;;12.10;99.90;;;;;;5014368;28;20400;-85
2022/10/26 01:19:12;;;;;;;1.17;1.05;;;12.10;99.90;;;;;;5016130;28;20112;-83
2022/10/26 01:21:49;;;;;;;1.88;1.10;;;12.10;99.90;;;;;;5015728;28;20034;-84
2022/10/26 01:24:40;;;;;;;1.40;1.00;;;12.20;99.90;;;;;;5015525;28;20105;-83
2022/10/26 01:27:51;;;;;;;1.30;1.17;;;12.20;99.90;;;;;;5012356;28;20030;-82
2022/10/26 01:30:47;;;;;;;2.92;1.50;;;12.20;99.90;;;;;;4969752;29;20039;-84
2022/10/26 01:33:38;;;;;;;2.40;1.30;;;12.20;99.90;;;;;;4966153;29;20425;-84
2022/10/26 01:36:28;;;;;;;1.70;1.20;;;12.20;99.90;;;;;;5003725;28;20046;-83
2022/10/26 01:39:18;;;;;;;1.58;1.00;;;12.20;99.90;;;;;;4991401;28;20022;-84
2022/10/26 01:41:50;;;;;;;1.45;0.80;;;12.20;99.90;;;;;;5008598;28;20019;-85
2022/10/26 01:44:29;;;;;;;1.27;1.00;;;12.20;99.90;;;;;;5009194;28;20026;-85
2022/10/26 01:46:57;;;;;;;1.17;1.08;;;12.20;99.90;;;;;;5005470;28;20038;-84
2022/10/26 01:49:28;;;;;;;1.33;1.02;;;12.20;99.90;;;;;;5005160;28;20018;-83
2022/10/26 01:51:54;;;;;;;1.27;0.80;;;12.30;99.90;;;;;;5004194;28;20019;-83
2022/10/26 01:54:19;;;;;;;1.48;1.02;;;12.20;99.90;;;;;;5005768;28;20030;-84
2022/10/26 01:56:56;;;;;;;3.00;1.02;;;12.20;99.90;;;;;;5001518;28;20038;-84
2022/10/26 01:59:44;;;;;;;2.15;0.85;;;12.20;99.90;;;;;;4985210;28;20049;-82
2022/10/26 02:02:22;;;;;;;4.03;1.27;;;12.10;99.90;;;;;;4996702;28;20069;-84
2022/10/26 02:04:56;;;;;;;3.33;1.20;;;12.10;99.90;;;;;;4985797;28;20107;-83
2022/10/26 02:07:40;;;;;;;2.72;1.20;;;12.10;99.90;;;;;;5003189;28;20049;-84
2022/10/26 02:10:11;;;;;;;1.85;1.08;;;12.20;99.90;;;;;;5005534;28;20122;-83
2022/10/26 02:12:46;;;;;;;2.58;1.00;;;12.10;99.90;;;;;;5003517;28;20061;-86
2022/10/26 02:15:35;;;;;;;2.83;1.42;;;12.20;99.90;;;;;;4985945;28;20090;-85
2022/10/26 02:18:19;;;;;;;2.08;0.75;;;12.30;99.90;;;;;;5003690;28;20023;-84
2022/10/26 02:20:52;;;;;;;2.08;1.20;;;12.20;99.90;;;;;;4986814;28;20072;-83
2022/10/26 02:23:20;;;;;;;2.40;1.02;;;12.30;99.90;;;;;;5004564;28;20348;-84
2022/10/26 02:25:50;;;;;;;2.75;1.17;;;12.30;99.90;;;;;;5003523;28;20019;-85
2022/10/26 02:28:24;;;;;;;1.30;1.13;;;12.30;99.90;;;;;;5004104;28;20033;-84
2022/10/26 02:30:54;;;;;;;2.83;1.00;;;12.30;99.90;;;;;;5004747;28;20023;-83
2022/10/26 02:33:23;;;;;;;1.85;1.00;;;12.30;99.90;;;;;;5004363;28;20472;-85
2022/10/26 02:35:53;;;;;;;1.67;1.00;;;12.30;99.90;;;;;;5006665;28;20023;-83
2022/10/26 02:38:19;;;;;;;0.80;0.80;;;12.20;99.90;;;;;;5002510;28;20052;-83
2022/10/26 02:40:48;;;;;;;3.15;1.23;;;12.20;99.90;;;;;;4996532;28;20049;-81
2022/10/26 02:43:20;;;;;;;0.90;0.70;;;12.30;99.90;;;;;;5012523;28;20037;-84
2022/10/26 02:46:06;;;;;;;;;;;12.30;99.90;;;;;;4997863;28;20037;-84
2022/10/26 02:48:32;;;;;;;1.70;0.98;;;12.30;99.90;;;;;;5014250;28;19910;-83
2022/10/26 02:51:17;;;;;;;1.48;0.90;;;12.30;99.90;;;;;;5014138;28;20074;-84
2022/10/26 02:53:58;;;;;;;1.30;1.10;;;12.30;99.90;;;;;;5005749;28;20034;-79
2022/10/26 02:56:29;;;;;;;3.50;1.10;;;12.30;99.90;;;;;;4999194;28;20026;-80
2022/10/26 02:59:01;;;;;;;1.00;0.90;;;12.30;99.90;;;;;;4988740;28;20035;-83
2022/10/26 03:01:28;;;;;;;0.80;0.73;;;12.20;99.90;;;;;;5007749;28;20058;-82
2022/10/26 03:03:58;;;;;;;2.45;1.00;;;12.30;99.90;;;;;;5010982;28;20022;-81
2022/10/26 03:06:25;;;;;;;1.35;1.05;;;12.20;99.90;;;;;;4991199;28;20030;-83
2022/10/26 03:08:51;;;;;;;1.42;0.77;;;12.30;99.90;;;;;;4991827;28;20400;-82
2022/10/26 03:11:17;;;;;;;1.35;1.10;;;12.30;99.90;;;;;;5008045;28;20030;-83
2022/10/26 03:13:43;;;;;;;2.15;1.00;;;12.30;99.90;;;;;;4988281;28;20034;-82
2022/10/26 03:16:09;;;;;;;3.28;1.35;;;12.30;99.90;;;;;;4987568;28;20070;-83
2022/10/26 03:18:35;;;;;;;7.13;1.50;;;12.30;99.90;;;;;;5000475;28;20150;-83
2022/10/26 03:21:00;;;;;;;3.42;1.13;;;12.30;99.90;;;;;;5002563;28;20142;-80
2022/10/26 03:23:26;;;;;;;2.22;1.20;;;12.30;99.90;;;;;;5002772;28;20026;-82
2022/10/26 03:25:56;;;;;;;3.92;1.20;;;12.30;99.90;;;;;;4999872;28;20030;-84
2022/10/26 03:28:21;;;;;;;0.98;0.90;;;12.30;99.90;;;;;;4981205;28;20037;-82
2022/10/26 03:30:47;;;;;;;0.95;0.85;;;12.30;99.90;;;;;;4999619;28;20026;-82
2022/10/26 03:33:13;;;;;;;1.63;1.00;;;12.40;99.90;;;;;;4999845;28;20084;-81
2022/10/26 03:35:38;;;;;;;1.60;1.20;;;12.30;99.90;;;;;;5003961;28;20030;-80
2022/10/26 03:38:04;;;;;;;1.23;0.90;;;12.30;99.90;;;;;;5012220;28;20104;-84
2022/10/26 03:40:30;;;;;;;1.73;0.80;;;12.30;99.90;;;;;;5007820;28;20472;-83
2022/10/26 03:42:55;;;;;;;1.90;0.80;;;12.30;99.90;;;;;;4998521;28;20038;-83
2022/10/26 03:45:21;;;;;;;0.73;0.73;;;12.40;99.90;;;;;;4999329;28;20487;-84
2022/10/26 03:47:48;;;;;;;0.82;0.77;;;12.40;99.90;;;;;;4999047;28;20076;-82
2022/10/26 03:50:17;;;;;;;1.17;0.70;;;12.40;99.90;;;;;;4993166;28;20027;-82
2022/10/26 03:52:43;;;;;;;0.73;0.68;;;12.30;99.90;;;;;;4998630;28;20023;-83
2022/10/26 03:55:09;;;;;;;0.80;0.70;;;12.30;99.90;;;;;;4998367;28;20510;-81
2022/10/26 03:57:40;;;;;;;3.05;0.77;;;12.40;99.90;;;;;;4999562;28;20519;-82
2022/10/26 04:00:06;;;;;;;1.52;1.10;;;12.40;99.90;;;;;;4993541;28;20026;-83
2022/10/26 04:02:32;;;;;;;0.98;0.80;;;12.40;99.90;;;;;;4999047;28;20010;-83
2022/10/26 04:04:57;;;;;;;1.33;0.70;;;12.50;99.90;;;;;;5001246;28;20031;-83
2022/10/26 04:07:23;;;;;;;1.60;0.80;;;12.50;99.90;;;;;;4998652;28;20575;-83
2022/10/26 04:09:49;;;;;;;1.33;0.77;;;12.50;99.90;;;;;;4984939;28;20026;-82
2022/10/26 04:12:14;;;;;;;0.82;0.70;;;12.50;99.90;;;;;;5001962;28;20034;-82
2022/10/26 04:14:40;;;;;;;0.57;0.57;;;12.60;99.90;;;;;;5002796;28;20035;-83
2022/10/26 04:17:05;;;;;;;0.65;0.65;;;12.60;99.90;;;;;;5001062;28;20034;-85
2022/10/26 04:19:31;;;;;;;3.78;0.85;;;12.60;99.90;;;;;;4999827;28;20034;-83
2022/10/26 04:21:57;;;;;;;1.80;1.00;;;12.60;99.90;;;;;;4995873;28;20034;-82
2022/10/26 04:24:22;;;;;;;1.85;0.70;;;12.60;99.90;;;;;;4984895;28;20177;-84
2022/10/26 04:26:48;;;;;;;0.70;0.68;;;12.50;99.90;;;;;;5001967;28;20026;-83
2022/10/26 04:29:13;;;;;;;3.15;0.82;;;12.60;99.90;;;;;;5001759;28;20090;-83
2022/10/26 04:31:40;;;;;;;0.80;0.80;;;12.60;99.90;;;;;;4997055;28;20022;-83
2022/10/26 04:34:06;;;;;;;0.60;0.60;;;12.60;99.90;;;;;;4984799;28;20031;-81
2022/10/26 04:36:33;;;;;;;1.90;0.90;;;12.60;99.90;;;;;;5002492;28;20033;-82
2022/10/26 04:38:59;;;;;;;0.50;0.47;;;12.60;99.90;;;;;;5002982;28;20037;-84
2022/10/26 04:41:24;;;;;;;0.55;0.50;;;12.70;99.90;;;;;;5004957;28;20038;-82
2022/10/26 04:43:50;;;;;;;0.70;0.52;;;12.70;99.90;;;;;;5006195;28;20029;-81
2022/10/26 04:46:15;;;;;;;1.00;0.73;;;12.70;99.90;;;;;;5012517;28;20050;-83
2022/10/26 04:48:41;;;;;;;1.20;0.77;;;12.70;99.90;;;;;;5002626;28;20046;-84
2022/10/26 04:51:07;;;;;;;1.45;0.80;;;12.70;99.90;;;;;;5002270;28;20035;-84
2022/10/26 04:53:33;;;;;;;0.70;0.70;;;12.70;99.90;;;;;;5002836;28;20022;-83
2022/10/26 04:56:00;;;;;;;1.63;1.00;;;12.80;99.90;;;;;;5003007;28;20032;-82
2022/10/26 04:58:26;;;;;;;2.63;2.15;;;12.80;99.90;;;;;;5004510;28;20022;-82
2022/10/26 05:00:52;;;;;;;1.73;1.60;;;12.70;99.90;;;;;;5001914;28;20050;-84
2022/10/26 05:03:18;;;;;;;1.88;1.38;;;12.70;99.90;;;;;;5001259;28;20026;-83
2022/10/26 05:05:44;;;;;;;3.10;1.15;;;12.80;99.90;;;;;;5001889;28;20113;-82
2022/10/26 05:08:10;;;;;;;2.28;1.20;;;12.80;99.90;;;;;;5001585;28;20022;-84
2022/10/26 05:10:35;;;;;;;8.77;1.67;;;12.80;99.90;;;;;;5002076;28;20030;-84
2022/10/26 05:13:01;;;;;;;3.42;1.60;;;12.90;99.90;;;;;;5001431;28;20057;-83
2022/10/26 05:15:27;;;;;;;2.53;1.48;;;12.90;99.90;;;;;;4985155;28;20030;-83
2022/10/26 05:18:02;;;;;;;3.38;1.77;;;12.90;99.90;;;;;;5001778;28;20084;-82
2022/10/26 05:20:30;;;;;;;5.55;1.40;;;12.90;99.90;;;;;;5007761;28;20093;-83
2022/10/26 05:23:00;;;;;;;1.77;1.20;;;12.90;99.90;;;;;;5008957;28;20057;-82
2022/10/26 05:25:29;;;;;;;2.85;1.40;;;12.80;99.90;;;;;;5008677;28;20019;-82
2022/10/26 05:27:58;;;;;;;2.85;1.00;;;12.80;99.90;;;;;;5004164;28;20038;-83
2022/10/26 05:30:24;;;;;;;1.30;0.85;;;12.70;99.90;;;;;;5016727;28;20037;-84
2022/10/26 05:32:54;;;;;;;1.48;1.17;;;12.70;99.90;;;;;;4992634;28;20492;-83
2022/10/26 05:35:20;;;;;;;2.53;1.05;;;12.70;99.90;;;;;;4983491;28;20550;-84
2022/10/26 05:37:46;;;;;;;1.63;0.93;;;12.70;99.90;;;;;;4984067;28;20026;-83
2022/10/26 05:40:11;;;;;;;1.30;1.20;;;12.70;99.90;;;;;;5003755;28;20038;-83
2022/10/26 05:42:40;;;;;;;3.25;1.10;;;12.80;99.90;;;;;;5001100;28;20037;-83
2022/10/26 05:45:06;;;;;;;3.38;1.55;;;12.80;99.90;;;;;;5003619;28;20041;-84
2022/10/26 05:47:31;;;;;;;4.93;1.75;;;12.80;99.90;;;;;;5000324;28;20031;-83
2022/10/26 05:49:57;;;;;;;4.07;1.60;;;12.90;99.90;;;;;;4995558;28;20045;-84
2022/10/26 05:52:23;;;;;;;8.57;1.63;;;12.90;99.90;;;;;;4990613;28;20073;-83
2022/10/26 05:54:49;;;;;;;1.55;1.35;;;12.90;99.90;;;;;;4985228;28;20030;-82
2022/10/26 05:57:15;;;;;;;2.90;1.80;;;12.90;99.90;;;;;;5000806;28;20169;-82
2022/10/26 05:59:41;;;;;;;2.78;1.38;;;12.90;99.90;;;;;;5000611;28;20168;-82
2022/10/26 06:02:37;;;;;;;1.98;1.30;;;12.90;99.90;;;;;;4983617;28;20046;-82
2022/10/26 06:05:04;;;;;;;3.90;1.60;;;12.80;99.90;;;;;;5006593;28;20030;-82
2022/10/26 06:07:32;;;;;;;3.97;1.33;;;12.70;99.90;;;;;;5005314;28;20022;-83
2022/10/26 06:09:58;;;;;;;4.72;1.83;;;12.70;99.90;;;;;;5000632;28;20022;-84
2022/10/26 06:12:25;;;;;;;6.28;1.85;;;12.70;99.90;;;;;;4993816;28;20361;-82
2022/10/26 06:14:51;;;;;;;1.52;1.20;;;12.70;99.90;;;;;;4998023;28;20021;-84
2022/10/26 06:17:52;;;;;;;3.70;1.75;;;12.60;99.90;;;;;;5009529;28;20026;-81
2022/10/26 06:20:49;;;;;;;3.90;1.73;;;12.70;99.90;;;;;;4958862;28;20088;-83
2022/10/26 06:23:49;;;;;;;3.20;1.90;;;12.70;99.90;;;;;;5004041;28;20022;-83
2022/10/26 06:26:31;;;;;;;2.85;1.48;;;12.70;99.90;;;;;;5008190;28;20416;-82
2022/10/26 06:29:05;;;;;;;1.58;1.30;;;12.70;99.90;;;;;;5012938;28;20070;-83
2022/10/26 06:31:30;;;;;;;1.55;1.20;;;12.70;99.90;;;;;;4995486;28;20023;-84
2022/10/26 06:33:59;;;;;;;2.38;1.30;;;12.80;99.90;;;;;;5009512;28;20040;-84
2022/10/26 06:36:26;;;;;;;2.65;1.33;;;12.80;99.90;;;;;;5016487;28;20038;-84
2022/10/26 06:39:02;;;;;;;1.80;1.20;;;12.90;99.90;;;;;;5014083;28;20141;-82
2022/10/26 06:41:31;;;;;;;1.83;1.40;;;12.90;99.90;;;;;;5002526;28;20018;-83
2022/10/26 06:43:57;;;;;;;1.52;1.35;;;12.90;99.90;;;;;;5002399;28;20023;-83
2022/10/26 06:46:25;;;;;;;1.73;1.27;;;12.90;99.90;;;;;;5001339;28;20031;-83
2022/10/26 06:49:18;;;;;;;1.20;1.10;;;13.00;99.90;;;;;;5000765;28;20468;-82
2022/10/26 06:51:59;;;;;;;2.28;1.20;;;13.20;99.90;;;;;;4985085;28;20045;-84
2022/10/26 06:54:30;;;;;;;1.27;1.17;;;13.30;99.90;;;;;;4991725;28;20030;-84
2022/10/26 06:56:56;;;;;;;2.08;1.40;;;13.40;99.90;;;;;;5009944;28;20110;-81
2022/10/26 06:59:55;;;;;;;3.20;1.85;;;13.50;99.90;;;;;;5002559;28;20026;-84
2022/10/26 07:02:21;;;;;;;3.83;2.03;;;13.60;99.90;;;;;;5002430;28;20014;-83
2022/10/26 07:04:47;;;;;;;1.77;1.67;;;13.70;99.90;;;;;;5009658;28;20030;-85
2022/10/26 07:07:24;;;;;;;3.35;1.67;;;13.70;99.90;;;;;;5013203;28;20046;-84
2022/10/26 07:09:50;;;;;;;2.05;1.45;;;13.80;99.90;;;;;;4988345;28;20427;-85
2022/10/26 07:12:16;;;;;;;2.15;1.13;;;13.80;99.90;;;;;;5003536;28;20146;-82
2022/10/26 07:14:42;;;;;;;3.55;1.88;;;13.90;99.90;;;;;;5002131;28;20145;-82
2022/10/26 07:17:08;;;;;;;6.50;2.00;;;13.90;99.90;;;;;;5000405;28;20428;-81
2022/10/26 07:19:34;;;;;;;4.25;1.77;;;14.00;99.90;;;;;;5001264;28;20030;-83
2022/10/26 07:22:00;;;;;;;2.70;1.73;;;14.00;99.90;;;;;;4988025;28;20049;-82
2022/10/26 07:24:29;;;;;;;4.65;1.80;;;14.00;99.90;;;;;;4997785;28;20039;-83
2022/10/26 07:26:56;;;;;;;3.47;1.58;;;14.00;99.90;;;;;;5006391;28;20116;-81
2022/10/26 07:29:23;;;;;;;3.22;1.38;;;14.00;99.90;;;;;;5002285;28;20021;-82
2022/10/26 07:31:49;;;;;;;4.03;1.77;;;14.00;99.90;;;;;;5015510;28;20018;-84
2022/10/26 07:34:15;;;;;;;5.55;1.95;;;14.10;99.90;;;;;;5014458;28;20034;-82
2022/10/26 07:36:41;;;;;;;3.65;1.73;;;14.10;99.90;;;;;;4983107;28;20117;-82
2022/10/26 07:39:07;;;;;;;5.32;1.73;;;14.10;99.90;;;;;;5000730;28;20026;-82
2022/10/26 07:41:33;;;;;;;2.90;1.33;;;14.10;99.90;;;;;;4968982;28;20074;-82
2022/10/26 07:43:59;;;;;;;2.75;1.38;;;14.10;99.90;;;;;;5018122;28;20075;-83
2022/10/26 07:46:25;;;;;;;3.75;1.67;;;14.20;99.90;;;;;;5023712;28;20074;-83
2022/10/26 07:48:50;;;;;;;3.15;1.50;;;14.10;99.90;;;;;;5011276;28;20100;-82
2022/10/26 07:51:16;;;;;;;3.67;1.38;;;14.10;99.90;;;;;;5003410;28;20034;-82
2022/10/26 07:53:42;;;;;;;4.78;1.40;;;14.10;99.90;;;;;;5004405;28;20034;-83
2022/10/26 07:56:09;;;;;;;2.53;1.10;;;14.10;99.90;;;;;;5001003;28;20030;-84
2022/10/26 07:58:35;;;;;;;3.60;1.13;;;14.20;99.90;;;;;;4990771;28;20039;-85
2022/10/26 08:01:10;;;;;;;4.53;1.48;;;14.30;99.90;;;;;;5004254;28;20045;-82
2022/10/26 08:03:36;;;;;;;2.75;1.23;;;14.30;99.90;;;;;;5006917;28;20144;-83
2022/10/26 08:06:03;;;;;;;2.15;1.17;;;14.40;99.90;;;;;;5007340;28;20019;-85
2022/10/26 08:08:30;;;;;;;1.52;0.93;;;14.40;99.90;;;;;;5006533;28;20023;-82
2022/10/26 08:10:56;;;;;;;2.70;1.42;;;14.50;99.90;;;;;;5004879;28;20025;-85
2022/10/26 08:13:22;;;;;;;1.20;0.98;;;14.50;99.90;;;;;;5004378;28;20046;-81
2022/10/26 08:15:48;;;;;;;2.05;1.15;;;14.60;99.90;;;;;;4987309;28;20032;-85
2022/10/26 08:18:13;;;;;;;1.20;0.70;;;14.60;99.90;;;;;;5005585;28;20046;-83
2022/10/26 08:20:39;;;;;;;1.42;0.88;;;14.60;99.90;;;;;;5005013;28;20098;-83
2022/10/26 08:23:07;;;;;;;2.13;0.80;;;14.70;99.90;;;;;;5006334;28;20038;-85
2022/10/26 08:25:33;;;;;;;1.92;1.00;;;14.80;99.90;;;;;;4988245;28;20018;-83
2022/10/26 08:28:03;;;;;;;4.28;1.05;;;14.80;99.90;;;;;;5004631;28;20037;-83
2022/10/26 08:30:32;;;;;;;1.33;1.08;;;14.90;99.90;;;;;;5004880;28;20033;-83
2022/10/26 08:33:09;;;;;;;1.73;0.85;;;15.00;99.90;;;;;;4984191;28;20055;-82
2022/10/26 08:35:36;;;;;;;3.42;1.10;;;15.20;99.90;;;;;;4998161;28;20037;-82
2022/10/26 08:38:03;;;;;;;3.30;1.45;;;15.50;99.90;;;;;;4986146;28;20046;-82
2022/10/26 08:40:33;;;;;;;1.40;0.90;;;15.90;99.90;;;;;;5004330;28;20042;-81
2022/10/26 08:43:18;;;;;;;1.73;0.93;;;16.30;99.90;;;;;;5006496;28;20052;-82
2022/10/26 08:46:13;;;;;;;1.27;1.15;;;16.80;98.50;;;;;;5004282;28;20038;-83
2022/10/26 08:48:59;;;;;;;1.33;1.00;;;16.90;97.50;;;;;;4996365;28;20053;-84
2022/10/26 08:51:37;;;;;;;0.80;0.80;;;17.00;96.60;;;;;;5007009;28;20126;-83
2022/10/26 08:54:19;;;;;;;1.30;0.90;;;17.00;96.30;;;;;;4991410;28;20504;-83
2022/10/26 08:57:08;;;;;;;1.55;1.02;;;16.90;96.20;;;;;;4988768;28;20049;-85
2022/10/26 08:59:51;;;;;;;5.07;1.17;;;16.80;96.10;;;;;;4988059;28;20177;-83
2022/10/26 09:02:17;;;;;;;2.25;1.00;;;16.90;96.10;;;;;;5006454;28;20514;-83
2022/10/26 09:04:43;;;;;;;0.70;0.70;;;17.10;95.80;;;;;;5006460;28;20027;-83
2022/10/26 09:07:47;;;;;;;1.92;0.98;;;17.30;95.40;;;;;;5006667;28;20037;-83
2022/10/26 09:10:36;;;;;;;3.40;1.00;;;17.50;94.90;;;;;;4988203;28;20027;-84
2022/10/26 09:13:14;;;;;;;2.05;1.15;;;17.90;94.50;;;;;;4987139;28;20527;-84
2022/10/26 09:15:58;;;;;;;2.15;0.65;;;18.20;93.70;;;;;;4969984;28;20507;-83
2022/10/26 09:18:46;;;;;;;1.55;0.75;;;18.60;92.70;;;;;;4990015;28;20401;-84
2022/10/26 09:21:44;;;;;;;1.00;0.70;;;18.90;92.20;;;;;;5017128;28;20034;-83
2022/10/26 09:24:14;;;;;;;1.52;0.80;;;19.60;91.00;;;;;;4966057;28;20114;-83
2022/10/26 09:27:19;;;;;;;2.10;1.10;;;20.50;87.80;;;;;;5006940;28;20029;-82
2022/10/26 09:29:44;;;;;;;0.93;0.63;;;21.40;84.60;;;;;;5005093;28;20057;-85
2022/10/26 09:32:19;;;;;;;1.33;1.00;;;22.10;79.50;;;;;;4987336;28;20030;-84
2022/10/26 09:34:50;;;;;;;1.92;0.57;;;22.20;74.90;;;;;;5012214;28;20033;-83
2022/10/26 09:37:34;;;;;;;2.33;0.85;;;21.80;74.30;;;;;;5004365;28;20046;-85
2022/10/26 09:40:09;;;;;;;2.10;0.93;;;21.40;74.50;;;;;;5003503;28;20133;-84
2022/10/26 09:42:47;;;;;;;2.33;1.33;;;21.30;75.20;;;;;;4989129;28;20069;-83
2022/10/26 09:45:19;;;;;;;2.35;0.85;;;21.40;74.10;;;;;;5005115;28;20030;-84
2022/10/26 09:47:49;;;;;;;;;;;21.50;73.90;;;;;;5005222;28;20027;-84
2022/10/26 09:50:35;;;;;;;1.67;1.02;;;21.50;73.00;;;;;;4996003;28;19913;-84
2022/10/26 09:53:02;;;;;;;0.98;0.90;;;21.40;73.70;;;;;;4986722;28;20349;-84
2022/10/26 09:55:30;;;;;;;1.58;0.73;;;21.30;72.60;;;;;;4983579;28;20033;-83
2022/10/26 09:58:00;;;;;;;1.58;0.65;;;21.10;73.10;;;;;;4983991;28;20026;-83
2022/10/26 10:00:27;;;;;;;1.83;1.00;;;21.10;73.30;;;;;;4968059;28;20034;-83
2022/10/26 10:02:57;;;;;;;2.08;1.05;;;21.10;72.90;;;;;;4985958;28;20022;-84
2022/10/26 10:05:32;;;;;;;1.65;0.90;;;20.90;72.90;;;;;;5009120;28;20082;-84
2022/10/26 10:08:19;;;;;;;3.17;0.90;;;20.80;73.30;;;;;;5003567;28;20022;-84
2022/10/26 10:11:06;;;;;;;2.60;1.08;;;20.50;73.20;;;;;;5004661;28;20030;-84
2022/10/26 10:13:36;;;;;;;4.30;1.42;;;20.40;74.10;;;;;;5003600;28;20049;-85
2022/10/26 10:16:22;;;;;;;3.25;1.48;;;20.30;74.50;;;;;;5003924;28;20030;-82
2022/10/26 10:18:56;;;;;;;5.57;1.60;;;20.20;73.60;;;;;;5005691;28;20034;-83
2022/10/26 10:21:42;;;;;;;6.45;1.40;;;20.10;73.90;;;;;;4979853;28;20031;-84
2022/10/26 10:24:26;;;;;;;2.38;1.45;;;20.00;72.80;;;;;;4985610;28;20027;-83
2022/10/26 10:27:01;;;;;;;1.65;1.08;;;20.00;72.80;;;;;;4989109;28;20034;-85
2022/10/26 10:29:33;;;;;;;3.35;0.95;;;20.00;73.00;;;;;;4992839;28;20038;-82
2022/10/26 10:32:02;;;;;;;2.70;1.00;;;20.00;72.80;;;;;;5004417;28;20065;-82
2022/10/26 10:34:32;;;;;;;2.67;1.10;;;20.10;72.50;;;;;;5018642;28;20022;-84
2022/10/26 10:36:59;;;;;;;2.30;1.63;;;20.40;71.70;;;;;;5010359;28;20077;-84
2022/10/26 10:39:34;;;;;;;4.13;1.50;;;20.80;70.80;;;;;;4988277;28;20730;-85
2022/10/26 10:42:00;;;;;;;5.97;1.58;;;21.10;69.20;;;;;;4978674;28;20062;-83
2022/10/26 10:44:30;;;;;;;3.00;1.20;;;21.10;68.00;;;;;;4988160;28;20491;-85
2022/10/26 10:47:01;;;;;;;5.07;1.65;;;21.00;68.10;;;;;;4984698;28;20076;-84
2022/10/26 10:49:28;;;;;;;4.00;1.45;;;20.90;69.60;;;;;;4988913;28;20079;-83
2022/10/26 10:51:55;;;;;;;3.95;1.60;;;20.90;68.90;;;;;;4995230;28;20030;-83
2022/10/26 10:54:33;;;;;;;3.90;1.50;;;20.90;69.30;;;;;;5001546;28;20078;-84
2022/10/26 10:57:14;;;;;;;2.40;1.23;;;20.90;69.50;;;;;;5003153;28;20119;-85
2022/10/26 10:59:59;;;;;;;6.22;2.40;;;20.90;69.60;;;;;;4992396;28;20042;-81
2022/10/26 11:02:40;;;;;;;4.55;1.80;;;20.80;69.00;;;;;;5006696;28;20081;-82
2022/10/26 11:05:34;;;;;;;2.47;2.20;;;20.70;69.40;;;;;;5005798;28;20026;-83
2022/10/26 11:08:11;;;;;;;5.20;2.22;;;20.60;69.90;;;;;;5003777;28;20118;-83
2022/10/26 11:11:04;;;;;;;3.60;1.90;;;20.50;70.40;;;;;;4996222;28;20022;-84
2022/10/26 11:13:38;;;;;;;5.85;1.92;;;20.50;70.20;;;;;;4998132;28;20026;-83
2022/10/26 11:16:11;;;;;;;7.45;1.73;;;20.40;70.50;;;;;;5004018;28;20030;-82
2022/10/26 11:18:55;;;;;;;4.72;2.08;;;20.40;70.40;;;;;;4984988;28;20034;-83
2022/10/26 11:21:27;;;;;;;7.63;2.10;;;20.40;70.70;;;;;;4987452;28;20045;-84
2022/10/26 11:24:19;;;;;;;4.88;1.50;;;20.50;70.20;;;;;;5002815;28;20026;-83
2022/10/26 11:26:54;;;;;;;4.10;1.70;;;20.50;70.10;;;;;;4988637;28;20042;-82
2022/10/26 11:29:42;;;;;;;5.22;1.88;;;20.50;70.70;;;;;;4990706;28;20027;-84
2022/10/26 11:32:26;;;;;;;6.10;1.80;;;20.60;71.10;;;;;;5004462;28;20105;-83
2022/10/26 11:35:10;;;;;;;8.35;2.30;;;20.60;70.70;;;;;;4985314;28;20041;-83
2022/10/26 11:37:55;;;;;;;7.15;2.00;;;20.70;69.70;;;;;;5002618;28;20435;-84
2022/10/26 11:40:33;;;;;;;5.20;1.85;;;20.70;69.80;;;;;;5002751;28;20037;-84
2022/10/26 11:43:07;;;;;;;6.45;1.98;;;20.60;70.30;;;;;;5003796;28;20033;-82
2022/10/26 11:45:43;;;;;;;5.40;1.73;;;20.50;70.80;;;;;;5003464;28;20104;-84
2022/10/26 11:48:23;;;;;;;1.92;1.33;;;20.50;71.10;;;;;;4984679;28;20027;-84
2022/10/26 11:50:59;;;;;;;8.05;1.77;;;20.50;71.50;;;;;;5003878;28;20034;-83
2022/10/26 11:53:37;;;;;;;7.35;2.33;;;20.50;71.70;;;;;;5003564;28;20145;-84
2022/10/26 11:56:10;;;;;;;4.10;2.17;;;20.60;71.50;;;;;;5004826;28;20444;-83
2022/10/26 11:58:36;;;;;;;8.65;2.80;;;20.70;71.20;;;;;;4989197;28;20067;-84
2022/10/26 12:01:09;;;;;;;5.85;1.65;;;20.60;71.30;;;;;;5005658;28;20073;-84
2022/10/26 12:03:44;;;;;;;5.10;1.60;;;20.50;72.20;;;;;;5005354;28;20045;-84
2022/10/26 12:06:12;;;;;;;2.85;1.77;;;20.20;73.20;;;;;;5002450;28;20027;-85
2022/10/26 12:08:56;;;;;;;6.70;2.00;;;19.90;74.40;;;;;;5011469;28;20022;-84
2022/10/26 12:11:47;;;;;;;9.40;2.00;;;19.70;75.50;;;;;;5013095;28;20026;-84
2022/10/26 12:14:28;;;;;;;4.13;1.70;;;19.60;76.40;;;;;;4979317;28;20120;-82
2022/10/26 12:17:35;;;;;;;8.40;1.75;;;19.40;77.60;;;;;;4991057;28;20262;-82
2022/10/26 12:20:33;;;;;;;7.47;2.15;;;19.40;78.10;;;;;;4936923;29;20036;-84
2022/10/26 12:22:59;;;;;;;6.47;2.33;;;19.40;78.40;;;;;;4943063;28;20074;-83
2022/10/26 12:25:25;;;;;;;7.30;2.30;;;19.50;78.30;;;;;;5001946;28;20096;-84
2022/10/26 12:27:53;;;;;;;5.45;1.70;;;19.60;77.80;;;;;;5002081;28;20036;-84
2022/10/26 12:30:43;;;;;;;7.00;2.15;;;19.60;78.00;;;;;;5002474;28;20076;-85
2022/10/26 12:33:47;;;;;;;6.43;2.40;;;19.70;77.40;;;;;;4991619;28;20464;-84
2022/10/26 12:36:47;;;;;;;6.93;1.85;;;19.60;77.90;;;;;;5003926;28;20034;-85
2022/10/26 12:39:33;;;;;;;8.35;2.58;;;19.60;77.40;;;;;;4986933;28;20054;-86
2022/10/26 12:42:04;;;;;;;10.85;2.55;;;19.70;77.30;;;;;;4990380;28;20026;-82
2022/10/26 12:45:01;;;;;;;8.90;2.72;;;19.80;76.60;;;;;;4989860;28;20030;-83
2022/10/26 12:47:41;;;;;;;7.25;2.28;;;19.90;76.20;;;;;;4996680;28;20042;-84
2022/10/26 12:50:08;;;;;;;7.80;2.05;;;20.00;75.40;;;;;;5006366;28;20053;-85
2022/10/26 12:52:51;;;;;;;6.60;2.05;;;20.20;75.50;;;;;;5009522;28;20097;-84
2022/10/26 12:55:46;;;;;;;3.63;1.77;;;20.50;73.90;;;;;;5007730;28;20037;-84
2022/10/26 12:58:21;;;;;;;10.25;2.35;;;20.80;73.20;;;;;;4994733;28;20024;-86
2022/10/26 13:00:56;;;;;;;8.68;1.67;;;20.90;71.50;;;;;;4989936;28;20035;-83
2022/10/26 13:03:34;;;;;;;8.38;2.95;;;20.90;71.50;;;;;;4995023;28;20026;-84
2022/10/26 13:06:16;;;;;;;7.88;2.10;;;20.80;72.10;;;;;;5013771;28;20073;-83
2022/10/26 13:08:48;;;;;;;13.35;2.72;;;20.80;72.50;;;;;;4995301;28;20039;-82
2022/10/26 13:11:24;;;;;;;9.50;2.40;;;21.00;71.40;;;;;;4996678;28;20033;-83
2022/10/26 13:14:00;;;;;;;10.80;2.97;;;21.20;70.40;;;;;;4999287;28;20034;-86
2022/10/26 13:16:28;;;;;;;5.53;2.22;;;21.60;69.60;;;;;;4994304;28;20074;-83
2022/10/26 13:18:54;;;;;;;16.10;2.50;;;21.80;68.90;;;;;;4994982;28;20034;-83